sensor_id;sensor_type;location;lat;lon;timestamp;P1;durP1;ratioP1;P2;durP2;ratioP2
43150;SDS011;28755;51.478;5.702;2024-03-23T00:54:41;16.52;;;5.60;;
43150;SDS011;28755;51.478;5.702;2024-03-23T00:57:07;16.45;;;6.28;;
43150;SDS011;28755;51.478;5.702;2024-03-23T00:59:32;21.25;;;6.72;;
43150;SDS011;28755;51.478;5.702;2024-03-23T01:01:58;19.20;;;5.60;;
43150;SDS011;28755;51.478;5.702;2024-03-23T01:04:24;23.80;;;5.35;;
43150;SDS011;28755;51.478;5.702;2024-03-23T01:06:49;16.35;;;5.93;;
43150;SDS011;28755;51.478;5.702;2024-03-23T01:09:15;20.75;;;5.45;;
43150;SDS011;28755;51.478;5.702;2024-03-23T01:11:40;12.82;;;4.78;;
43150;SDS011;28755;51.478;5.702;2024-03-23T01:14:06;16.63;;;4.65;;
43150;SDS011;28755;51.478;5.702;2024-03-23T01:16:32;18.88;;;4.63;;
43150;SDS011;28755;51.478;5.702;2024-03-23T01:18:57;13.90;;;4.75;;
43150;SDS011;28755;51.478;5.702;2024-03-23T01:21:23;16.08;;;4.35;;
43150;SDS011;28755;51.478;5.702;2024-03-23T01:23:49;20.15;;;5.07;;
43150;SDS011;28755;51.478;5.702;2024-03-23T01:26:14;10.52;;;4.00;;
43150;SDS011;28755;51.478;5.702;2024-03-23T01:28:40;15.23;;;4.70;;
43150;SDS011;28755;51.478;5.702;2024-03-23T01:31:06;15.52;;;4.50;;
43150;SDS011;28755;51.478;5.702;2024-03-23T01:33:31;16.45;;;4.80;;
43150;SDS011;28755;51.478;5.702;2024-03-23T01:35:57;16.27;;;4.28;;
43150;SDS011;28755;51.478;5.702;2024-03-23T01:38:23;17.38;;;4.57;;
43150;SDS011;28755;51.478;5.702;2024-03-23T01:40:48;17.08;;;3.97;;
43150;SDS011;28755;51.478;5.702;2024-03-23T01:43:14;16.15;;;4.65;;
43150;SDS011;28755;51.478;5.702;2024-03-23T01:45:40;11.90;;;3.90;;
43150;SDS011;28755;51.478;5.702;2024-03-23T01:48:05;15.63;;;4.13;;
43150;SDS011;28755;51.478;5.702;2024-03-23T01:50:31;14.65;;;3.88;;
43150;SDS011;28755;51.478;5.702;2024-03-23T01:52:59;15.43;;;4.05;;
43150;SDS011;28755;51.478;5.702;2024-03-23T01:55:30;18.30;;;4.40;;
43150;SDS011;28755;51.478;5.702;2024-03-23T01:57:57;19.80;;;4.30;;
43150;SDS011;28755;51.478;5.702;2024-03-23T02:00:23;17.20;;;4.65;;
43150;SDS011;28755;51.478;5.702;2024-03-23T02:02:48;16.58;;;4.15;;
43150;SDS011;28755;51.478;5.702;2024-03-23T02:05:14;17.08;;;4.90;;
43150;SDS011;28755;51.478;5.702;2024-03-23T02:07:40;14.75;;;3.88;;
43150;SDS011;28755;51.478;5.702;2024-03-23T02:10:08;21.48;;;4.57;;
43150;SDS011;28755;51.478;5.702;2024-03-23T02:12:40;15.48;;;4.80;;
43150;SDS011;28755;51.478;5.702;2024-03-23T02:15:06;12.70;;;4.32;;
43150;SDS011;28755;51.478;5.702;2024-03-23T02:17:34;18.80;;;4.40;;
43150;SDS011;28755;51.478;5.702;2024-03-23T02:20:00;13.60;;;4.80;;
43150;SDS011;28755;51.478;5.702;2024-03-23T02:22:36;18.00;;;4.57;;
43150;SDS011;28755;51.478;5.702;2024-03-23T02:25:03;12.65;;;4.47;;
43150;SDS011;28755;51.478;5.702;2024-03-23T02:27:29;18.13;;;4.47;;
43150;SDS011;28755;51.478;5.702;2024-03-23T02:29:55;15.23;;;4.35;;
43150;SDS011;28755;51.478;5.702;2024-03-23T02:32:20;20.65;;;5.43;;
43150;SDS011;28755;51.478;5.702;2024-03-23T02:34:46;18.67;;;4.78;;
43150;SDS011;28755;51.478;5.702;2024-03-23T02:37:11;16.25;;;4.40;;
43150;SDS011;28755;51.478;5.702;2024-03-23T02:39:37;14.18;;;4.28;;
43150;SDS011;28755;51.478;5.702;2024-03-23T02:42:03;13.85;;;4.47;;
43150;SDS011;28755;51.478;5.702;2024-03-23T02:44:28;14.55;;;4.40;;
43150;SDS011;28755;51.478;5.702;2024-03-23T02:46:54;15.80;;;4.43;;
43150;SDS011;28755;51.478;5.702;2024-03-23T02:49:19;22.52;;;5.38;;
43150;SDS011;28755;51.478;5.702;2024-03-23T02:51:46;22.10;;;5.85;;
43150;SDS011;28755;51.478;5.702;2024-03-23T02:54:13;21.58;;;6.00;;
43150;SDS011;28755;51.478;5.702;2024-03-23T02:56:39;18.98;;;4.68;;
43150;SDS011;28755;51.478;5.702;2024-03-23T02:59:04;19.05;;;5.57;;
43150;SDS011;28755;51.478;5.702;2024-03-23T03:01:30;31.48;;;5.82;;
43150;SDS011;28755;51.478;5.702;2024-03-23T03:03:55;18.25;;;5.38;;
43150;SDS011;28755;51.478;5.702;2024-03-23T03:06:24;26.33;;;5.65;;
43150;SDS011;28755;51.478;5.702;2024-03-23T03:08:51;18.30;;;5.15;;
43150;SDS011;28755;51.478;5.702;2024-03-23T03:11:16;19.25;;;5.63;;
43150;SDS011;28755;51.478;5.702;2024-03-23T03:13:42;24.33;;;6.05;;
43150;SDS011;28755;51.478;5.702;2024-03-23T03:16:11;16.23;;;5.28;;
43150;SDS011;28755;51.478;5.702;2024-03-23T03:18:37;17.87;;;5.43;;
43150;SDS011;28755;51.478;5.702;2024-03-23T03:21:03;16.98;;;5.78;;
43150;SDS011;28755;51.478;5.702;2024-03-23T03:23:30;18.30;;;5.30;;
43150;SDS011;28755;51.478;5.702;2024-03-23T03:25:56;15.73;;;5.00;;
43150;SDS011;28755;51.478;5.702;2024-03-23T03:28:22;14.30;;;4.88;;
43150;SDS011;28755;51.478;5.702;2024-03-23T03:30:47;17.77;;;4.80;;
43150;SDS011;28755;51.478;5.702;2024-03-23T03:33:13;15.70;;;4.85;;
43150;SDS011;28755;51.478;5.702;2024-03-23T03:35:38;14.15;;;4.80;;
43150;SDS011;28755;51.478;5.702;2024-03-23T03:38:04;20.13;;;5.28;;
43150;SDS011;28755;51.478;5.702;2024-03-23T03:40:30;24.33;;;5.47;;
43150;SDS011;28755;51.478;5.702;2024-03-23T03:42:55;15.23;;;4.95;;
43150;SDS011;28755;51.478;5.702;2024-03-23T03:45:21;14.57;;;5.32;;
43150;SDS011;28755;51.478;5.702;2024-03-23T03:47:46;15.35;;;5.03;;
43150;SDS011;28755;51.478;5.702;2024-03-23T03:50:12;21.83;;;5.53;;
43150;SDS011;28755;51.478;5.702;2024-03-23T03:52:38;13.43;;;4.82;;
43150;SDS011;28755;51.478;5.702;2024-03-23T03:55:03;18.40;;;4.82;;
43150;SDS011;28755;51.478;5.702;2024-03-23T03:57:38;23.95;;;5.30;;
43150;SDS011;28755;51.478;5.702;2024-03-23T04:00:03;17.92;;;4.45;;
43150;SDS011;28755;51.478;5.702;2024-03-23T04:02:30;20.75;;;5.38;;
43150;SDS011;28755;51.478;5.702;2024-03-23T04:04:55;14.50;;;4.28;;
43150;SDS011;28755;51.478;5.702;2024-03-23T04:07:21;18.05;;;5.10;;
43150;SDS011;28755;51.478;5.702;2024-03-23T04:09:47;17.63;;;4.65;;
43150;SDS011;28755;51.478;5.702;2024-03-23T04:12:14;15.00;;;4.28;;
43150;SDS011;28755;51.478;5.702;2024-03-23T04:14:40;21.15;;;4.25;;
43150;SDS011;28755;51.478;5.702;2024-03-23T04:17:06;20.33;;;4.43;;
43150;SDS011;28755;51.478;5.702;2024-03-23T04:19:31;16.38;;;3.83;;
43150;SDS011;28755;51.478;5.702;2024-03-23T04:21:57;14.48;;;3.75;;
43150;SDS011;28755;51.478;5.702;2024-03-23T04:24:23;18.00;;;4.15;;
43150;SDS011;28755;51.478;5.702;2024-03-23T04:26:49;16.10;;;4.38;;
43150;SDS011;28755;51.478;5.702;2024-03-23T04:29:15;15.30;;;4.25;;
43150;SDS011;28755;51.478;5.702;2024-03-23T04:31:41;13.98;;;4.53;;
43150;SDS011;28755;51.478;5.702;2024-03-23T04:34:06;17.98;;;4.13;;
43150;SDS011;28755;51.478;5.702;2024-03-23T04:36:32;13.88;;;4.03;;
43150;SDS011;28755;51.478;5.702;2024-03-23T04:38:58;12.73;;;4.03;;
43150;SDS011;28755;51.478;5.702;2024-03-23T04:41:24;16.90;;;4.50;;
43150;SDS011;28755;51.478;5.702;2024-03-23T04:43:50;15.57;;;4.70;;
43150;SDS011;28755;51.478;5.702;2024-03-23T04:46:16;15.68;;;4.47;;
43150;SDS011;28755;51.478;5.702;2024-03-23T04:48:42;16.17;;;4.22;;
43150;SDS011;28755;51.478;5.702;2024-03-23T04:51:09;15.50;;;4.43;;
43150;SDS011;28755;51.478;5.702;2024-03-23T04:53:37;14.82;;;4.85;;
43150;SDS011;28755;51.478;5.702;2024-03-23T04:56:03;15.43;;;4.97;;
43150;SDS011;28755;51.478;5.702;2024-03-23T04:58:29;16.80;;;4.97;;
43150;SDS011;28755;51.478;5.702;2024-03-23T05:00:55;12.55;;;5.18;;
43150;SDS011;28755;51.478;5.702;2024-03-23T05:03:21;18.40;;;5.82;;
43150;SDS011;28755;51.478;5.702;2024-03-23T05:05:48;20.85;;;6.25;;
43150;SDS011;28755;51.478;5.702;2024-03-23T05:08:14;16.88;;;5.30;;
43150;SDS011;28755;51.478;5.702;2024-03-23T05:10:41;19.85;;;6.80;;
43150;SDS011;28755;51.478;5.702;2024-03-23T05:13:10;18.77;;;6.93;;
43150;SDS011;28755;51.478;5.702;2024-03-23T05:15:36;19.17;;;6.78;;
43150;SDS011;28755;51.478;5.702;2024-03-23T05:18:02;19.77;;;7.78;;
43150;SDS011;28755;51.478;5.702;2024-03-23T05:20:28;21.75;;;8.50;;
43150;SDS011;28755;51.478;5.702;2024-03-23T05:22:57;22.55;;;8.63;;
43150;SDS011;28755;51.478;5.702;2024-03-23T05:25:23;26.88;;;9.20;;
43150;SDS011;28755;51.478;5.702;2024-03-23T05:27:48;27.15;;;9.55;;
43150;SDS011;28755;51.478;5.702;2024-03-23T05:30:14;31.45;;;10.43;;
43150;SDS011;28755;51.478;5.702;2024-03-23T05:32:40;27.27;;;10.13;;
43150;SDS011;28755;51.478;5.702;2024-03-23T05:35:07;28.30;;;11.60;;
43150;SDS011;28755;51.478;5.702;2024-03-23T05:37:34;26.17;;;11.32;;
43150;SDS011;28755;51.478;5.702;2024-03-23T05:40:00;31.00;;;11.18;;
43150;SDS011;28755;51.478;5.702;2024-03-23T05:42:25;31.90;;;11.43;;
43150;SDS011;28755;51.478;5.702;2024-03-23T05:44:51;25.10;;;10.63;;
43150;SDS011;28755;51.478;5.702;2024-03-23T05:47:17;28.75;;;11.90;;
43150;SDS011;28755;51.478;5.702;2024-03-23T05:49:43;30.00;;;12.75;;
43150;SDS011;28755;51.478;5.702;2024-03-23T05:52:11;27.73;;;11.95;;
43150;SDS011;28755;51.478;5.702;2024-03-23T05:54:36;32.28;;;11.80;;
43150;SDS011;28755;51.478;5.702;2024-03-23T05:57:02;31.02;;;12.07;;
43150;SDS011;28755;51.478;5.702;2024-03-23T05:59:28;25.90;;;11.73;;
43150;SDS011;28755;51.478;5.702;2024-03-23T06:01:54;36.47;;;11.68;;
43150;SDS011;28755;51.478;5.702;2024-03-23T06:04:20;36.40;;;12.13;;
43150;SDS011;28755;51.478;5.702;2024-03-23T06:06:48;36.83;;;11.70;;
43150;SDS011;28755;51.478;5.702;2024-03-23T06:09:16;32.65;;;12.07;;
43150;SDS011;28755;51.478;5.702;2024-03-23T06:11:42;34.38;;;11.13;;
43150;SDS011;28755;51.478;5.702;2024-03-23T06:14:07;34.13;;;11.00;;
43150;SDS011;28755;51.478;5.702;2024-03-23T06:16:33;23.85;;;10.18;;
43150;SDS011;28755;51.478;5.702;2024-03-23T06:18:58;34.28;;;10.25;;
43150;SDS011;28755;51.478;5.702;2024-03-23T06:21:25;26.35;;;9.25;;
43150;SDS011;28755;51.478;5.702;2024-03-23T06:23:53;26.15;;;9.27;;
43150;SDS011;28755;51.478;5.702;2024-03-23T06:26:20;34.67;;;9.48;;
43150;SDS011;28755;51.478;5.702;2024-03-23T06:28:46;32.67;;;9.73;;
43150;SDS011;28755;51.478;5.702;2024-03-23T06:31:12;24.73;;;9.05;;
43150;SDS011;28755;51.478;5.702;2024-03-23T06:33:38;24.75;;;9.05;;
43150;SDS011;28755;51.478;5.702;2024-03-23T06:36:06;15.93;;;7.22;;
43150;SDS011;28755;51.478;5.702;2024-03-23T06:38:35;29.05;;;8.70;;
43150;SDS011;28755;51.478;5.702;2024-03-23T06:41:04;30.25;;;9.00;;
43150;SDS011;28755;51.478;5.702;2024-03-23T06:43:30;20.80;;;7.38;;
43150;SDS011;28755;51.478;5.702;2024-03-23T06:45:56;21.05;;;7.18;;
43150;SDS011;28755;51.478;5.702;2024-03-23T06:48:22;21.85;;;7.35;;
43150;SDS011;28755;51.478;5.702;2024-03-23T06:50:47;16.58;;;5.78;;
43150;SDS011;28755;51.478;5.702;2024-03-23T06:53:13;15.88;;;4.80;;
43150;SDS011;28755;51.478;5.702;2024-03-23T06:55:40;17.52;;;5.07;;
43150;SDS011;28755;51.478;5.702;2024-03-23T06:58:05;12.30;;;3.80;;
43150;SDS011;28755;51.478;5.702;2024-03-23T07:00:31;14.35;;;4.05;;
43150;SDS011;28755;51.478;5.702;2024-03-23T07:02:57;16.45;;;4.10;;
43150;SDS011;28755;51.478;5.702;2024-03-23T07:05:23;16.17;;;5.82;;
43150;SDS011;28755;51.478;5.702;2024-03-23T07:07:49;18.98;;;4.68;;
43150;SDS011;28755;51.478;5.702;2024-03-23T07:10:14;13.75;;;4.75;;
43150;SDS011;28755;51.478;5.702;2024-03-23T07:12:40;18.77;;;5.93;;
43150;SDS011;28755;51.478;5.702;2024-03-23T07:15:06;20.42;;;5.20;;
43150;SDS011;28755;51.478;5.702;2024-03-23T07:17:33;16.92;;;4.40;;
43150;SDS011;28755;51.478;5.702;2024-03-23T07:20:00;16.10;;;4.55;;
43150;SDS011;28755;51.478;5.702;2024-03-23T07:22:28;16.00;;;3.70;;
43150;SDS011;28755;51.478;5.702;2024-03-23T07:24:59;18.17;;;3.83;;
43150;SDS011;28755;51.478;5.702;2024-03-23T07:27:26;16.75;;;4.20;;
43150;SDS011;28755;51.478;5.702;2024-03-23T07:29:51;16.30;;;3.90;;
43150;SDS011;28755;51.478;5.702;2024-03-23T07:32:17;17.15;;;4.30;;
43150;SDS011;28755;51.478;5.702;2024-03-23T07:34:42;22.10;;;4.60;;
43150;SDS011;28755;51.478;5.702;2024-03-23T07:37:09;11.73;;;4.63;;
43150;SDS011;28755;51.478;5.702;2024-03-23T07:39:35;18.02;;;4.65;;
43150;SDS011;28755;51.478;5.702;2024-03-23T07:42:01;19.30;;;4.50;;
43150;SDS011;28755;51.478;5.702;2024-03-23T07:44:27;18.38;;;4.38;;
43150;SDS011;28755;51.478;5.702;2024-03-23T07:46:52;12.20;;;3.40;;
43150;SDS011;28755;51.478;5.702;2024-03-23T07:49:18;8.70;;;3.30;;
43150;SDS011;28755;51.478;5.702;2024-03-23T07:51:44;14.60;;;3.78;;
43150;SDS011;28755;51.478;5.702;2024-03-23T07:54:09;11.95;;;3.58;;
43150;SDS011;28755;51.478;5.702;2024-03-23T07:56:35;17.77;;;3.97;;
43150;SDS011;28755;51.478;5.702;2024-03-23T07:59:01;15.75;;;4.13;;
43150;SDS011;28755;51.478;5.702;2024-03-23T08:01:28;15.32;;;5.05;;
43150;SDS011;28755;51.478;5.702;2024-03-23T08:03:54;20.85;;;5.45;;
43150;SDS011;28755;51.478;5.702;2024-03-23T08:06:19;20.20;;;5.10;;
43150;SDS011;28755;51.478;5.702;2024-03-23T08:08:48;18.63;;;4.50;;
43150;SDS011;28755;51.478;5.702;2024-03-23T08:11:24;13.32;;;3.85;;
43150;SDS011;28755;51.478;5.702;2024-03-23T08:13:53;17.40;;;4.05;;
43150;SDS011;28755;51.478;5.702;2024-03-23T08:16:20;10.07;;;3.15;;
43150;SDS011;28755;51.478;5.702;2024-03-23T08:18:46;13.60;;;3.38;;
43150;SDS011;28755;51.478;5.702;2024-03-23T08:21:11;16.25;;;3.72;;
43150;SDS011;28755;51.478;5.702;2024-03-23T08:23:37;21.20;;;3.45;;
43150;SDS011;28755;51.478;5.702;2024-03-23T08:26:04;15.07;;;2.88;;
43150;SDS011;28755;51.478;5.702;2024-03-23T08:28:31;16.13;;;2.72;;
43150;SDS011;28755;51.478;5.702;2024-03-23T08:30:56;12.10;;;2.70;;
43150;SDS011;28755;51.478;5.702;2024-03-23T08:33:25;14.25;;;3.10;;
43150;SDS011;28755;51.478;5.702;2024-03-23T08:35:54;12.85;;;3.00;;
43150;SDS011;28755;51.478;5.702;2024-03-23T08:38:29;9.10;;;2.72;;
43150;SDS011;28755;51.478;5.702;2024-03-23T08:41:02;12.70;;;2.38;;
43150;SDS011;28755;51.478;5.702;2024-03-23T08:43:38;15.35;;;3.03;;
43150;SDS011;28755;51.478;5.702;2024-03-23T08:48:32;13.82;;;2.70;;
43150;SDS011;28755;51.478;5.702;2024-03-23T08:51:05;16.98;;;2.80;;
43150;SDS011;28755;51.478;5.702;2024-03-23T08:53:31;12.32;;;2.40;;
43150;SDS011;28755;51.478;5.702;2024-03-23T08:55:58;13.02;;;2.50;;
43150;SDS011;28755;51.478;5.702;2024-03-23T08:58:25;11.98;;;2.50;;
43150;SDS011;28755;51.478;5.702;2024-03-23T09:00:52;12.02;;;2.28;;
43150;SDS011;28755;51.478;5.702;2024-03-23T09:03:18;17.27;;;2.53;;
43150;SDS011;28755;51.478;5.702;2024-03-23T09:05:43;14.13;;;2.50;;
43150;SDS011;28755;51.478;5.702;2024-03-23T09:08:09;11.32;;;2.35;;
43150;SDS011;28755;51.478;5.702;2024-03-23T09:10:38;11.45;;;2.60;;
43150;SDS011;28755;51.478;5.702;2024-03-23T09:13:04;11.15;;;2.10;;
43150;SDS011;28755;51.478;5.702;2024-03-23T09:15:34;12.15;;;2.60;;
43150;SDS011;28755;51.478;5.702;2024-03-23T09:18:01;11.18;;;1.92;;
43150;SDS011;28755;51.478;5.702;2024-03-23T09:20:27;9.13;;;1.60;;
43150;SDS011;28755;51.478;5.702;2024-03-23T09:22:53;7.72;;;1.40;;
43150;SDS011;28755;51.478;5.702;2024-03-23T09:25:18;5.60;;;1.02;;
43150;SDS011;28755;51.478;5.702;2024-03-23T09:27:47;5.63;;;0.95;;
43150;SDS011;28755;51.478;5.702;2024-03-23T09:30:13;5.97;;;1.10;;
43150;SDS011;28755;51.478;5.702;2024-03-23T09:32:39;7.72;;;1.35;;
43150;SDS011;28755;51.478;5.702;2024-03-23T09:35:07;5.90;;;1.38;;
43150;SDS011;28755;51.478;5.702;2024-03-23T09:37:32;4.53;;;1.10;;
43150;SDS011;28755;51.478;5.702;2024-03-23T09:39:58;5.53;;;1.10;;
43150;SDS011;28755;51.478;5.702;2024-03-23T09:42:23;5.63;;;1.00;;
43150;SDS011;28755;51.478;5.702;2024-03-23T09:44:50;7.53;;;1.63;;
43150;SDS011;28755;51.478;5.702;2024-03-23T09:47:16;6.55;;;1.20;;
43150;SDS011;28755;51.478;5.702;2024-03-23T09:49:42;5.53;;;1.52;;
43150;SDS011;28755;51.478;5.702;2024-03-23T09:52:09;7.65;;;1.20;;
43150;SDS011;28755;51.478;5.702;2024-03-23T09:54:34;8.63;;;1.50;;
43150;SDS011;28755;51.478;5.702;2024-03-23T09:57:00;7.15;;;1.45;;
43150;SDS011;28755;51.478;5.702;2024-03-23T09:59:25;6.57;;;1.60;;
43150;SDS011;28755;51.478;5.702;2024-03-23T10:01:52;8.23;;;1.42;;
43150;SDS011;28755;51.478;5.702;2024-03-23T10:07:12;7.05;;;2.05;;
43150;SDS011;28755;51.478;5.702;2024-03-23T10:09:43;7.60;;;1.75;;
43150;SDS011;28755;51.478;5.702;2024-03-23T10:14:39;9.55;;;2.13;;
43150;SDS011;28755;51.478;5.702;2024-03-23T10:17:21;7.03;;;1.90;;
43150;SDS011;28755;51.478;5.702;2024-03-23T10:19:51;11.50;;;2.10;;
43150;SDS011;28755;51.478;5.702;2024-03-23T10:22:21;8.02;;;2.05;;
43150;SDS011;28755;51.478;5.702;2024-03-23T10:24:48;7.80;;;1.73;;
43150;SDS011;28755;51.478;5.702;2024-03-23T10:27:18;9.48;;;1.60;;
43150;SDS011;28755;51.478;5.702;2024-03-23T10:29:45;9.93;;;1.30;;
43150;SDS011;28755;51.478;5.702;2024-03-23T10:32:11;5.40;;;0.85;;
43150;SDS011;28755;51.478;5.702;2024-03-23T10:34:38;8.07;;;1.42;;
43150;SDS011;28755;51.478;5.702;2024-03-23T10:37:04;5.80;;;1.13;;
43150;SDS011;28755;51.478;5.702;2024-03-23T10:39:32;3.75;;;1.10;;
43150;SDS011;28755;51.478;5.702;2024-03-23T10:42:05;8.43;;;1.52;;
43150;SDS011;28755;51.478;5.702;2024-03-23T10:44:34;2.75;;;0.98;;
43150;SDS011;28755;51.478;5.702;2024-03-23T10:47:00;5.82;;;1.13;;
43150;SDS011;28755;51.478;5.702;2024-03-23T10:49:30;6.13;;;1.20;;
43150;SDS011;28755;51.478;5.702;2024-03-23T10:52:00;6.22;;;1.50;;
43150;SDS011;28755;51.478;5.702;2024-03-23T10:56:57;7.90;;;1.30;;
43150;SDS011;28755;51.478;5.702;2024-03-23T10:59:28;7.63;;;1.60;;
43150;SDS011;28755;51.478;5.702;2024-03-23T11:01:56;8.18;;;1.92;;
43150;SDS011;28755;51.478;5.702;2024-03-23T11:04:35;8.25;;;1.63;;
43150;SDS011;28755;51.478;5.702;2024-03-23T11:09:49;10.93;;;1.80;;
43150;SDS011;28755;51.478;5.702;2024-03-23T11:14:48;8.55;;;1.50;;
43150;SDS011;28755;51.478;5.702;2024-03-23T11:17:19;8.65;;;1.75;;
43150;SDS011;28755;51.478;5.702;2024-03-23T11:19:52;10.27;;;1.88;;
43150;SDS011;28755;51.478;5.702;2024-03-23T11:25:16;11.13;;;2.15;;
43150;SDS011;28755;51.478;5.702;2024-03-23T11:27:46;7.00;;;2.00;;
43150;SDS011;28755;51.478;5.702;2024-03-23T11:30:19;6.30;;;1.85;;
43150;SDS011;28755;51.478;5.702;2024-03-23T11:32:47;6.72;;;1.73;;
43150;SDS011;28755;51.478;5.702;2024-03-23T11:35:29;8.65;;;1.80;;
43150;SDS011;28755;51.478;5.702;2024-03-23T11:38:04;6.05;;;1.73;;
43150;SDS011;28755;51.478;5.702;2024-03-23T11:40:38;7.53;;;1.50;;
43150;SDS011;28755;51.478;5.702;2024-03-23T11:43:08;6.82;;;1.45;;
43150;SDS011;28755;51.478;5.702;2024-03-23T11:45:39;7.60;;;1.60;;
43150;SDS011;28755;51.478;5.702;2024-03-23T11:48:09;6.88;;;1.30;;
43150;SDS011;28755;51.478;5.702;2024-03-23T11:50:40;3.85;;;0.93;;
43150;SDS011;28755;51.478;5.702;2024-03-23T11:53:09;5.60;;;1.10;;
43150;SDS011;28755;51.478;5.702;2024-03-23T11:58:12;5.13;;;1.35;;
43150;SDS011;28755;51.478;5.702;2024-03-23T12:00:39;5.32;;;1.20;;
43150;SDS011;28755;51.478;5.702;2024-03-23T12:03:05;4.15;;;0.80;;
43150;SDS011;28755;51.478;5.702;2024-03-23T12:05:31;5.70;;;1.00;;
43150;SDS011;28755;51.478;5.702;2024-03-23T12:10:52;3.20;;;0.90;;
43150;SDS011;28755;51.478;5.702;2024-03-23T12:13:29;3.97;;;0.85;;
43150;SDS011;28755;51.478;5.702;2024-03-23T12:15:55;2.70;;;0.90;;
43150;SDS011;28755;51.478;5.702;2024-03-23T12:18:33;4.25;;;0.98;;
43150;SDS011;28755;51.478;5.702;2024-03-23T12:20:59;2.10;;;0.73;;
43150;SDS011;28755;51.478;5.702;2024-03-23T12:23:25;7.15;;;0.80;;
43150;SDS011;28755;51.478;5.702;2024-03-23T12:25:50;3.20;;;1.00;;
43150;SDS011;28755;51.478;5.702;2024-03-23T12:28:16;4.68;;;0.77;;
43150;SDS011;28755;51.478;5.702;2024-03-23T12:30:42;6.55;;;1.00;;
43150;SDS011;28755;51.478;5.702;2024-03-23T12:33:08;3.78;;;0.90;;
43150;SDS011;28755;51.478;5.702;2024-03-23T12:35:33;3.10;;;1.02;;
43150;SDS011;28755;51.478;5.702;2024-03-23T12:37:59;4.20;;;1.10;;
43150;SDS011;28755;51.478;5.702;2024-03-23T12:40:27;5.50;;;0.93;;
43150;SDS011;28755;51.478;5.702;2024-03-23T12:42:53;2.95;;;0.88;;
43150;SDS011;28755;51.478;5.702;2024-03-23T12:45:19;6.57;;;1.10;;
43150;SDS011;28755;51.478;5.702;2024-03-23T12:47:44;5.57;;;1.10;;
43150;SDS011;28755;51.478;5.702;2024-03-23T12:50:10;6.10;;;0.98;;
43150;SDS011;28755;51.478;5.702;2024-03-23T12:52:36;4.43;;;0.90;;
43150;SDS011;28755;51.478;5.702;2024-03-23T12:55:02;5.40;;;1.42;;
43150;SDS011;28755;51.478;5.702;2024-03-23T12:57:30;7.03;;;1.30;;
43150;SDS011;28755;51.478;5.702;2024-03-23T12:59:56;6.25;;;0.98;;
43150;SDS011;28755;51.478;5.702;2024-03-23T13:02:22;5.50;;;1.23;;
43150;SDS011;28755;51.478;5.702;2024-03-23T13:04:51;4.07;;;1.30;;
43150;SDS011;28755;51.478;5.702;2024-03-23T13:07:18;5.45;;;1.02;;
43150;SDS011;28755;51.478;5.702;2024-03-23T13:09:44;6.53;;;1.00;;
43150;SDS011;28755;51.478;5.702;2024-03-23T13:12:11;2.85;;;1.10;;
43150;SDS011;28755;51.478;5.702;2024-03-23T13:14:40;3.42;;;0.88;;
43150;SDS011;28755;51.478;5.702;2024-03-23T13:17:06;3.38;;;1.27;;
43150;SDS011;28755;51.478;5.702;2024-03-23T13:19:32;4.35;;;0.68;;
43150;SDS011;28755;51.478;5.702;2024-03-23T13:21:58;4.93;;;0.90;;
43150;SDS011;28755;51.478;5.702;2024-03-23T13:24:25;2.22;;;0.63;;
43150;SDS011;28755;51.478;5.702;2024-03-23T13:26:52;2.08;;;0.93;;
43150;SDS011;28755;51.478;5.702;2024-03-23T13:29:18;3.72;;;0.82;;
43150;SDS011;28755;51.478;5.702;2024-03-23T13:31:44;4.40;;;1.00;;
43150;SDS011;28755;51.478;5.702;2024-03-23T13:34:10;5.60;;;1.08;;
43150;SDS011;28755;51.478;5.702;2024-03-23T13:36:36;3.83;;;0.98;;
43150;SDS011;28755;51.478;5.702;2024-03-23T13:39:02;6.35;;;1.00;;
43150;SDS011;28755;51.478;5.702;2024-03-23T13:41:35;7.47;;;1.00;;
43150;SDS011;28755;51.478;5.702;2024-03-23T13:44:05;4.18;;;1.55;;
43150;SDS011;28755;51.478;5.702;2024-03-23T13:46:32;5.13;;;1.23;;
43150;SDS011;28755;51.478;5.702;2024-03-23T13:48:58;6.20;;;1.13;;
43150;SDS011;28755;51.478;5.702;2024-03-23T13:51:24;7.30;;;1.15;;
43150;SDS011;28755;51.478;5.702;2024-03-23T13:53:52;4.57;;;1.00;;
43150;SDS011;28755;51.478;5.702;2024-03-23T13:56:27;3.83;;;0.93;;
43150;SDS011;28755;51.478;5.702;2024-03-23T13:58:54;6.90;;;1.00;;
43150;SDS011;28755;51.478;5.702;2024-03-23T14:01:23;5.00;;;1.00;;
43150;SDS011;28755;51.478;5.702;2024-03-23T14:03:49;3.15;;;1.00;;
43150;SDS011;28755;51.478;5.702;2024-03-23T14:06:15;3.92;;;1.10;;
43150;SDS011;28755;51.478;5.702;2024-03-23T14:08:40;3.45;;;0.80;;
43150;SDS011;28755;51.478;5.702;2024-03-23T14:11:07;6.60;;;1.00;;
43150;SDS011;28755;51.478;5.702;2024-03-23T14:13:33;6.25;;;1.13;;
43150;SDS011;28755;51.478;5.702;2024-03-23T14:16:00;4.40;;;1.10;;
43150;SDS011;28755;51.478;5.702;2024-03-23T14:18:26;7.30;;;1.20;;
43150;SDS011;28755;51.478;5.702;2024-03-23T14:20:52;6.68;;;1.50;;
43150;SDS011;28755;51.478;5.702;2024-03-23T14:23:23;6.70;;;1.50;;
43150;SDS011;28755;51.478;5.702;2024-03-23T14:25:49;4.97;;;1.40;;
43150;SDS011;28755;51.478;5.702;2024-03-23T14:28:17;7.72;;;1.50;;
43150;SDS011;28755;51.478;5.702;2024-03-23T14:30:42;8.18;;;1.75;;
43150;SDS011;28755;51.478;5.702;2024-03-23T14:33:08;6.75;;;1.30;;
43150;SDS011;28755;51.478;5.702;2024-03-23T14:35:34;5.22;;;1.30;;
43150;SDS011;28755;51.478;5.702;2024-03-23T14:38:00;6.57;;;1.40;;
43150;SDS011;28755;51.478;5.702;2024-03-23T14:40:26;7.93;;;1.50;;
43150;SDS011;28755;51.478;5.702;2024-03-23T14:42:54;8.65;;;1.63;;
43150;SDS011;28755;51.478;5.702;2024-03-23T14:45:22;6.60;;;1.70;;
43150;SDS011;28755;51.478;5.702;2024-03-23T14:47:49;7.93;;;1.90;;
43150;SDS011;28755;51.478;5.702;2024-03-23T14:50:18;12.40;;;2.15;;
43150;SDS011;28755;51.478;5.702;2024-03-23T14:52:47;8.32;;;1.77;;
43150;SDS011;28755;51.478;5.702;2024-03-23T14:55:13;6.25;;;1.33;;
43150;SDS011;28755;51.478;5.702;2024-03-23T14:57:39;6.78;;;1.20;;
43150;SDS011;28755;51.478;5.702;2024-03-23T15:00:06;8.85;;;1.80;;
43150;SDS011;28755;51.478;5.702;2024-03-23T15:02:39;4.80;;;1.40;;
43150;SDS011;28755;51.478;5.702;2024-03-23T15:05:05;10.88;;;1.70;;
43150;SDS011;28755;51.478;5.702;2024-03-23T15:07:34;4.17;;;1.23;;
43150;SDS011;28755;51.478;5.702;2024-03-23T15:09:59;4.70;;;1.20;;
43150;SDS011;28755;51.478;5.702;2024-03-23T15:12:25;5.57;;;1.17;;
43150;SDS011;28755;51.478;5.702;2024-03-23T15:14:50;6.22;;;1.77;;
43150;SDS011;28755;51.478;5.702;2024-03-23T15:17:16;5.75;;;1.48;;
43150;SDS011;28755;51.478;5.702;2024-03-23T15:19:43;4.18;;;1.17;;
43150;SDS011;28755;51.478;5.702;2024-03-23T15:22:09;4.20;;;0.98;;
43150;SDS011;28755;51.478;5.702;2024-03-23T15:24:35;5.65;;;1.23;;
43150;SDS011;28755;51.478;5.702;2024-03-23T15:27:01;5.07;;;1.20;;
43150;SDS011;28755;51.478;5.702;2024-03-23T15:29:28;5.47;;;1.25;;
43150;SDS011;28755;51.478;5.702;2024-03-23T15:31:53;3.65;;;1.10;;
43150;SDS011;28755;51.478;5.702;2024-03-23T15:34:19;5.05;;;1.20;;
43150;SDS011;28755;51.478;5.702;2024-03-23T15:36:47;6.38;;;1.10;;
43150;SDS011;28755;51.478;5.702;2024-03-23T15:39:14;9.77;;;1.58;;
43150;SDS011;28755;51.478;5.702;2024-03-23T15:41:41;6.28;;;1.15;;
43150;SDS011;28755;51.478;5.702;2024-03-23T15:44:09;8.50;;;1.38;;
43150;SDS011;28755;51.478;5.702;2024-03-23T15:46:34;4.45;;;1.17;;
43150;SDS011;28755;51.478;5.702;2024-03-23T15:49:00;5.55;;;1.20;;
43150;SDS011;28755;51.478;5.702;2024-03-23T15:51:26;5.97;;;1.00;;
43150;SDS011;28755;51.478;5.702;2024-03-23T15:53:56;5.03;;;0.90;;